sensor_id;sensor_type;location;lat;lon;timestamp;P1;durP1;ratioP1;P2;durP2;ratioP2
73276;SDS011;61501;43.316;5.372;2023-09-19T00:00:37;19.38;;;7.32;;
73276;SDS011;61501;43.316;5.372;2023-09-19T00:03:03;14.77;;;6.45;;
73276;SDS011;61501;43.316;5.372;2023-09-19T00:05:33;15.85;;;7.15;;
73276;SDS011;61501;43.316;5.372;2023-09-19T00:08:00;18.73;;;7.55;;
73276;SDS011;61501;43.316;5.372;2023-09-19T00:10:27;15.70;;;7.22;;
73276;SDS011;61501;43.316;5.372;2023-09-19T00:12:57;17.50;;;7.32;;
73276;SDS011;61501;43.316;5.372;2023-09-19T00:15:30;14.98;;;6.43;;
73276;SDS011;61501;43.316;5.372;2023-09-19T00:18:00;17.75;;;7.95;;
73276;SDS011;61501;43.316;5.372;2023-09-19T00:20:26;15.85;;;7.20;;
73276;SDS011;61501;43.316;5.372;2023-09-19T00:22:55;13.50;;;6.07;;
73276;SDS011;61501;43.316;5.372;2023-09-19T00:25:21;16.60;;;5.55;;
73276;SDS011;61501;43.316;5.372;2023-09-19T00:27:47;14.63;;;5.13;;
73276;SDS011;61501;43.316;5.372;2023-09-19T00:30:15;13.80;;;5.32;;
73276;SDS011;61501;43.316;5.372;2023-09-19T00:32:44;11.43;;;4.82;;
73276;SDS011;61501;43.316;5.372;2023-09-19T00:35:15;12.80;;;4.45;;
73276;SDS011;61501;43.316;5.372;2023-09-19T00:37:41;12.35;;;5.35;;
73276;SDS011;61501;43.316;5.372;2023-09-19T00:40:07;11.65;;;5.65;;
73276;SDS011;61501;43.316;5.372;2023-09-19T00:42:43;12.65;;;5.88;;
73276;SDS011;61501;43.316;5.372;2023-09-19T00:45:10;11.35;;;5.28;;
73276;SDS011;61501;43.316;5.372;2023-09-19T00:47:40;14.02;;;6.82;;
73276;SDS011;61501;43.316;5.372;2023-09-19T00:50:11;11.13;;;5.10;;
73276;SDS011;61501;43.316;5.372;2023-09-19T00:52:40;12.60;;;5.85;;
73276;SDS011;61501;43.316;5.372;2023-09-19T00:55:07;13.52;;;5.40;;
73276;SDS011;61501;43.316;5.372;2023-09-19T00:57:34;8.55;;;4.57;;
73276;SDS011;61501;43.316;5.372;2023-09-19T01:00:03;12.02;;;4.97;;
73276;SDS011;61501;43.316;5.372;2023-09-19T01:02:32;10.93;;;5.18;;
73276;SDS011;61501;43.316;5.372;2023-09-19T01:05:01;10.50;;;4.80;;
73276;SDS011;61501;43.316;5.372;2023-09-19T01:07:29;7.72;;;4.03;;
73276;SDS011;61501;43.316;5.372;2023-09-19T01:09:56;9.82;;;4.28;;
73276;SDS011;61501;43.316;5.372;2023-09-19T01:12:30;8.75;;;4.10;;
73276;SDS011;61501;43.316;5.372;2023-09-19T01:18:50;9.05;;;4.13;;
73276;SDS011;61501;43.316;5.372;2023-09-19T01:24:22;7.93;;;3.85;;
73276;SDS011;61501;43.316;5.372;2023-09-19T01:26:56;8.73;;;4.15;;
73276;SDS011;61501;43.316;5.372;2023-09-19T01:29:44;9.63;;;3.95;;
73276;SDS011;61501;43.316;5.372;2023-09-19T01:32:13;6.30;;;3.63;;
73276;SDS011;61501;43.316;5.372;2023-09-19T01:37:14;8.25;;;3.70;;
73276;SDS011;61501;43.316;5.372;2023-09-19T01:39:45;11.18;;;4.38;;
73276;SDS011;61501;43.316;5.372;2023-09-19T01:47:48;7.60;;;3.70;;
73276;SDS011;61501;43.316;5.372;2023-09-19T01:53:08;9.77;;;4.78;;
73276;SDS011;61501;43.316;5.372;2023-09-19T01:55:43;8.15;;;3.95;;
73276;SDS011;61501;43.316;5.372;2023-09-19T01:58:27;7.95;;;4.00;;
73276;SDS011;61501;43.316;5.372;2023-09-19T02:01:04;8.38;;;4.00;;
73276;SDS011;61501;43.316;5.372;2023-09-19T02:03:33;8.13;;;3.67;;
73276;SDS011;61501;43.316;5.372;2023-09-19T02:06:01;8.60;;;3.30;;
73276;SDS011;61501;43.316;5.372;2023-09-19T02:08:28;9.65;;;3.80;;
73276;SDS011;61501;43.316;5.372;2023-09-19T02:10:56;8.93;;;3.67;;
73276;SDS011;61501;43.316;5.372;2023-09-19T02:13:22;7.97;;;3.53;;
73276;SDS011;61501;43.316;5.372;2023-09-19T02:15:53;7.38;;;3.20;;
73276;SDS011;61501;43.316;5.372;2023-09-19T02:18:18;6.70;;;3.50;;
73276;SDS011;61501;43.316;5.372;2023-09-19T02:20:44;6.88;;;3.55;;
73276;SDS011;61501;43.316;5.372;2023-09-19T02:23:11;6.32;;;3.28;;
73276;SDS011;61501;43.316;5.372;2023-09-19T02:25:37;6.53;;;3.35;;
73276;SDS011;61501;43.316;5.372;2023-09-19T02:28:05;11.55;;;3.45;;
73276;SDS011;61501;43.316;5.372;2023-09-19T02:30:31;8.10;;;3.78;;
73276;SDS011;61501;43.316;5.372;2023-09-19T02:32:58;7.65;;;3.13;;
73276;SDS011;61501;43.316;5.372;2023-09-19T02:35:27;5.78;;;3.88;;
73276;SDS011;61501;43.316;5.372;2023-09-19T02:37:53;8.57;;;4.10;;
73276;SDS011;61501;43.316;5.372;2023-09-19T02:40:19;7.82;;;4.13;;
73276;SDS011;61501;43.316;5.372;2023-09-19T02:42:48;7.13;;;4.07;;
73276;SDS011;61501;43.316;5.372;2023-09-19T02:45:17;7.90;;;4.47;;
73276;SDS011;61501;43.316;5.372;2023-09-19T02:47:44;8.75;;;5.20;;
73276;SDS011;61501;43.316;5.372;2023-09-19T02:50:10;10.43;;;6.15;;
73276;SDS011;61501;43.316;5.372;2023-09-19T02:52:37;9.15;;;5.28;;
73276;SDS011;61501;43.316;5.372;2023-09-19T02:55:03;6.78;;;5.05;;
73276;SDS011;61501;43.316;5.372;2023-09-19T02:57:31;8.73;;;4.95;;
73276;SDS011;61501;43.316;5.372;2023-09-19T02:59:58;5.90;;;4.40;;
73276;SDS011;61501;43.316;5.372;2023-09-19T03:02:26;4.97;;;3.90;;
73276;SDS011;61501;43.316;5.372;2023-09-19T03:04:53;6.85;;;3.72;;
73276;SDS011;61501;43.316;5.372;2023-09-19T03:07:19;6.28;;;3.35;;
73276;SDS011;61501;43.316;5.372;2023-09-19T03:09:44;5.32;;;3.40;;
73276;SDS011;61501;43.316;5.372;2023-09-19T03:12:10;7.72;;;3.10;;
73276;SDS011;61501;43.316;5.372;2023-09-19T03:14:36;5.63;;;3.20;;
73276;SDS011;61501;43.316;5.372;2023-09-19T03:17:02;4.28;;;2.47;;
73276;SDS011;61501;43.316;5.372;2023-09-19T03:19:30;5.18;;;2.10;;
73276;SDS011;61501;43.316;5.372;2023-09-19T03:21:59;3.90;;;2.42;;
73276;SDS011;61501;43.316;5.372;2023-09-19T03:24:25;5.45;;;2.40;;
73276;SDS011;61501;43.316;5.372;2023-09-19T03:26:51;4.13;;;2.53;;
73276;SDS011;61501;43.316;5.372;2023-09-19T03:29:17;4.55;;;2.15;;
73276;SDS011;61501;43.316;5.372;2023-09-19T03:31:43;5.28;;;2.40;;
73276;SDS011;61501;43.316;5.372;2023-09-19T03:34:08;5.47;;;1.98;;
73276;SDS011;61501;43.316;5.372;2023-09-19T03:36:35;4.78;;;1.90;;
73276;SDS011;61501;43.316;5.372;2023-09-19T03:39:01;4.53;;;1.90;;
73276;SDS011;61501;43.316;5.372;2023-09-19T03:41:30;4.55;;;1.30;;
73276;SDS011;61501;43.316;5.372;2023-09-19T03:43:56;3.15;;;1.70;;
73276;SDS011;61501;43.316;5.372;2023-09-19T03:46:22;3.38;;;1.58;;
73276;SDS011;61501;43.316;5.372;2023-09-19T03:48:51;2.72;;;1.70;;
73276;SDS011;61501;43.316;5.372;2023-09-19T03:51:16;3.70;;;2.05;;
73276;SDS011;61501;43.316;5.372;2023-09-19T03:53:42;3.67;;;1.50;;
73276;SDS011;61501;43.316;5.372;2023-09-19T03:56:07;2.38;;;1.48;;
73276;SDS011;61501;43.316;5.372;2023-09-19T03:58:36;5.22;;;1.27;;
73276;SDS011;61501;43.316;5.372;2023-09-19T04:01:04;1.95;;;1.10;;
73276;SDS011;61501;43.316;5.372;2023-09-19T04:03:31;2.45;;;1.20;;
73276;SDS011;61501;43.316;5.372;2023-09-19T04:06:12;2.83;;;1.42;;
73276;SDS011;61501;43.316;5.372;2023-09-19T04:08:41;4.57;;;1.70;;
73276;SDS011;61501;43.316;5.372;2023-09-19T04:11:07;2.63;;;1.50;;
73276;SDS011;61501;43.316;5.372;2023-09-19T04:13:33;3.17;;;1.45;;
73276;SDS011;61501;43.316;5.372;2023-09-19T04:15:58;3.75;;;1.67;;
73276;SDS011;61501;43.316;5.372;2023-09-19T04:18:24;2.75;;;1.60;;
73276;SDS011;61501;43.316;5.372;2023-09-19T04:20:50;3.53;;;1.50;;
73276;SDS011;61501;43.316;5.372;2023-09-19T04:23:16;3.22;;;1.48;;
73276;SDS011;61501;43.316;5.372;2023-09-19T04:25:45;3.75;;;1.98;;
73276;SDS011;61501;43.316;5.372;2023-09-19T04:28:10;3.67;;;1.98;;
73276;SDS011;61501;43.316;5.372;2023-09-19T04:30:37;4.45;;;1.65;;
73276;SDS011;61501;43.316;5.372;2023-09-19T04:33:05;4.40;;;1.58;;
73276;SDS011;61501;43.316;5.372;2023-09-19T04:35:31;5.97;;;1.73;;
73276;SDS011;61501;43.316;5.372;2023-09-19T04:37:57;5.40;;;1.60;;
73276;SDS011;61501;43.316;5.372;2023-09-19T04:40:23;7.55;;;1.90;;
73276;SDS011;61501;43.316;5.372;2023-09-19T04:42:53;5.13;;;1.50;;
73276;SDS011;61501;43.316;5.372;2023-09-19T04:45:24;3.78;;;1.70;;
73276;SDS011;61501;43.316;5.372;2023-09-19T04:47:51;4.13;;;1.80;;
73276;SDS011;61501;43.316;5.372;2023-09-19T04:50:18;5.20;;;1.52;;
73276;SDS011;61501;43.316;5.372;2023-09-19T04:52:44;4.40;;;2.00;;
73276;SDS011;61501;43.316;5.372;2023-09-19T04:55:10;5.22;;;2.00;;
73276;SDS011;61501;43.316;5.372;2023-09-19T04:57:41;4.93;;;1.55;;
73276;SDS011;61501;43.316;5.372;2023-09-19T05:00:08;4.70;;;2.10;;
73276;SDS011;61501;43.316;5.372;2023-09-19T05:02:37;3.72;;;1.60;;
73276;SDS011;61501;43.316;5.372;2023-09-19T05:05:04;6.68;;;2.00;;
73276;SDS011;61501;43.316;5.372;2023-09-19T05:07:31;7.35;;;2.50;;
73276;SDS011;61501;43.316;5.372;2023-09-19T05:09:57;4.88;;;1.80;;
73276;SDS011;61501;43.316;5.372;2023-09-19T05:12:22;5.13;;;2.28;;
73276;SDS011;61501;43.316;5.372;2023-09-19T05:14:48;3.53;;;1.73;;
73276;SDS011;61501;43.316;5.372;2023-09-19T05:17:14;4.30;;;1.70;;
73276;SDS011;61501;43.316;5.372;2023-09-19T05:19:42;6.97;;;2.03;;
73276;SDS011;61501;43.316;5.372;2023-09-19T05:22:08;3.22;;;1.65;;
73276;SDS011;61501;43.316;5.372;2023-09-19T05:24:33;6.43;;;4.05;;
73276;SDS011;61501;43.316;5.372;2023-09-19T05:26:59;3.47;;;1.85;;
73276;SDS011;61501;43.316;5.372;2023-09-19T05:29:26;4.47;;;1.92;;
73276;SDS011;61501;43.316;5.372;2023-09-19T05:31:51;4.32;;;1.90;;
73276;SDS011;61501;43.316;5.372;2023-09-19T05:34:19;3.38;;;2.03;;
73276;SDS011;61501;43.316;5.372;2023-09-19T05:36:45;4.95;;;1.67;;
73276;SDS011;61501;43.316;5.372;2023-09-19T05:39:11;4.30;;;1.55;;
73276;SDS011;61501;43.316;5.372;2023-09-19T05:41:37;6.55;;;1.92;;
73276;SDS011;61501;43.316;5.372;2023-09-19T05:44:05;2.80;;;1.52;;
73276;SDS011;61501;43.316;5.372;2023-09-19T05:46:32;3.72;;;1.65;;
73276;SDS011;61501;43.316;5.372;2023-09-19T05:49:00;2.97;;;1.30;;
73276;SDS011;61501;43.316;5.372;2023-09-19T05:51:26;3.75;;;1.77;;
73276;SDS011;61501;43.316;5.372;2023-09-19T05:53:53;4.15;;;1.70;;
73276;SDS011;61501;43.316;5.372;2023-09-19T05:56:20;3.55;;;1.60;;
73276;SDS011;61501;43.316;5.372;2023-09-19T05:58:45;5.57;;;1.83;;
73276;SDS011;61501;43.316;5.372;2023-09-19T06:01:11;4.97;;;1.90;;
73276;SDS011;61501;43.316;5.372;2023-09-19T06:03:37;5.18;;;1.90;;
73276;SDS011;61501;43.316;5.372;2023-09-19T06:06:02;4.35;;;1.67;;
73276;SDS011;61501;43.316;5.372;2023-09-19T06:08:29;7.38;;;1.77;;
73276;SDS011;61501;43.316;5.372;2023-09-19T06:10:56;5.20;;;1.90;;
73276;SDS011;61501;43.316;5.372;2023-09-19T06:13:21;3.78;;;1.65;;
73276;SDS011;61501;43.316;5.372;2023-09-19T06:15:48;4.68;;;2.15;;
73276;SDS011;61501;43.316;5.372;2023-09-19T06:18:14;5.72;;;1.75;;
73276;SDS011;61501;43.316;5.372;2023-09-19T06:20:44;3.47;;;1.65;;
73276;SDS011;61501;43.316;5.372;2023-09-19T06:23:15;5.20;;;1.90;;
73276;SDS011;61501;43.316;5.372;2023-09-19T06:25:42;3.58;;;1.50;;
73276;SDS011;61501;43.316;5.372;2023-09-19T06:28:08;7.00;;;1.30;;
73276;SDS011;61501;43.316;5.372;2023-09-19T06:30:37;4.82;;;1.33;;
73276;SDS011;61501;43.316;5.372;2023-09-19T06:33:07;5.65;;;1.52;;
73276;SDS011;61501;43.316;5.372;2023-09-19T06:35:33;4.00;;;1.50;;
73276;SDS011;61501;43.316;5.372;2023-09-19T06:38:01;5.32;;;1.55;;
73276;SDS011;61501;43.316;5.372;2023-09-19T06:40:28;4.53;;;1.63;;
73276;SDS011;61501;43.316;5.372;2023-09-19T06:42:56;4.22;;;1.45;;
73276;SDS011;61501;43.316;5.372;2023-09-19T06:45:21;5.85;;;1.77;;
73276;SDS011;61501;43.316;5.372;2023-09-19T06:47:48;3.72;;;1.70;;
73276;SDS011;61501;43.316;5.372;2023-09-19T06:50:16;2.13;;;1.30;;
73276;SDS011;61501;43.316;5.372;2023-09-19T06:52:47;3.28;;;1.25;;
73276;SDS011;61501;43.316;5.372;2023-09-19T06:55:15;3.25;;;1.30;;
73276;SDS011;61501;43.316;5.372;2023-09-19T06:57:44;4.88;;;1.80;;
73276;SDS011;61501;43.316;5.372;2023-09-19T07:00:11;5.72;;;1.50;;
73276;SDS011;61501;43.316;5.372;2023-09-19T07:02:43;6.57;;;3.03;;
73276;SDS011;61501;43.316;5.372;2023-09-19T07:05:31;6.03;;;2.27;;
73276;SDS011;61501;43.316;5.372;2023-09-19T07:07:58;10.75;;;2.50;;
73276;SDS011;61501;43.316;5.372;2023-09-19T07:10:25;5.05;;;1.92;;
73276;SDS011;61501;43.316;5.372;2023-09-19T07:13:02;9.20;;;3.17;;
73276;SDS011;61501;43.316;5.372;2023-09-19T07:15:34;17.23;;;4.47;;
73276;SDS011;61501;43.316;5.372;2023-09-19T07:18:06;10.88;;;3.53;;
73276;SDS011;61501;43.316;5.372;2023-09-19T07:20:35;10.63;;;2.83;;
73276;SDS011;61501;43.316;5.372;2023-09-19T07:23:02;5.05;;;2.00;;
73276;SDS011;61501;43.316;5.372;2023-09-19T07:25:28;8.65;;;2.50;;
73276;SDS011;61501;43.316;5.372;2023-09-19T07:27:57;9.40;;;2.63;;
73276;SDS011;61501;43.316;5.372;2023-09-19T07:30:26;4.30;;;2.13;;
73276;SDS011;61501;43.316;5.372;2023-09-19T07:32:53;6.45;;;2.08;;
73276;SDS011;61501;43.316;5.372;2023-09-19T07:35:18;9.23;;;1.63;;
73276;SDS011;61501;43.316;5.372;2023-09-19T07:37:47;4.53;;;1.75;;
73276;SDS011;61501;43.316;5.372;2023-09-19T07:40:14;7.13;;;1.67;;
73276;SDS011;61501;43.316;5.372;2023-09-19T07:42:40;3.33;;;1.60;;
73276;SDS011;61501;43.316;5.372;2023-09-19T07:45:07;10.85;;;2.10;;
73276;SDS011;61501;43.316;5.372;2023-09-19T07:47:33;8.38;;;2.70;;
73276;SDS011;61501;43.316;5.372;2023-09-19T07:50:00;3.97;;;1.42;;
73276;SDS011;61501;43.316;5.372;2023-09-19T07:52:27;5.53;;;2.08;;
73276;SDS011;61501;43.316;5.372;2023-09-19T07:54:54;6.00;;;1.92;;
73276;SDS011;61501;43.316;5.372;2023-09-19T07:57:20;4.90;;;1.75;;
73276;SDS011;61501;43.316;5.372;2023-09-19T07:59:45;4.32;;;1.90;;
73276;SDS011;61501;43.316;5.372;2023-09-19T08:02:11;9.30;;;3.30;;
73276;SDS011;61501;43.316;5.372;2023-09-19T08:04:43;9.15;;;2.90;;
73276;SDS011;61501;43.316;5.372;2023-09-19T08:07:11;5.40;;;2.33;;
73276;SDS011;61501;43.316;5.372;2023-09-19T08:09:38;7.75;;;3.20;;
73276;SDS011;61501;43.316;5.372;2023-09-19T08:12:04;7.88;;;1.63;;
73276;SDS011;61501;43.316;5.372;2023-09-19T08:14:32;4.93;;;1.45;;
73276;SDS011;61501;43.316;5.372;2023-09-19T08:17:00;9.68;;;2.20;;
73276;SDS011;61501;43.316;5.372;2023-09-19T08:19:25;6.25;;;1.95;;
73276;SDS011;61501;43.316;5.372;2023-09-19T08:21:56;4.40;;;1.60;;
73276;SDS011;61501;43.316;5.372;2023-09-19T08:24:29;2.38;;;1.00;;
73276;SDS011;61501;43.316;5.372;2023-09-19T08:26:55;2.97;;;1.10;;
73276;SDS011;61501;43.316;5.372;2023-09-19T08:29:22;4.07;;;1.10;;
73276;SDS011;61501;43.316;5.372;2023-09-19T08:31:56;3.75;;;0.95;;
73276;SDS011;61501;43.316;5.372;2023-09-19T08:34:23;5.00;;;1.10;;
73276;SDS011;61501;43.316;5.372;2023-09-19T08:36:52;4.78;;;1.15;;
73276;SDS011;61501;43.316;5.372;2023-09-19T08:39:24;4.15;;;1.48;;
73276;SDS011;61501;43.316;5.372;2023-09-19T08:42:00;4.22;;;1.27;;
73276;SDS011;61501;43.316;5.372;2023-09-19T08:44:29;7.07;;;1.50;;
73276;SDS011;61501;43.316;5.372;2023-09-19T08:46:58;2.55;;;1.10;;
73276;SDS011;61501;43.316;5.372;2023-09-19T08:49:36;3.97;;;1.30;;
73276;SDS011;61501;43.316;5.372;2023-09-19T08:52:27;4.00;;;1.38;;
73276;SDS011;61501;43.316;5.372;2023-09-19T08:54:59;3.17;;;1.60;;
73276;SDS011;61501;43.316;5.372;2023-09-19T08:57:32;4.60;;;1.38;;
73276;SDS011;61501;43.316;5.372;2023-09-19T09:00:02;3.83;;;1.27;;
73276;SDS011;61501;43.316;5.372;2023-09-19T09:02:35;4.18;;;1.17;;
73276;SDS011;61501;43.316;5.372;2023-09-19T09:05:07;2.60;;;1.27;;
73276;SDS011;61501;43.316;5.372;2023-09-19T09:07:34;7.57;;;1.30;;
73276;SDS011;61501;43.316;5.372;2023-09-19T09:10:05;8.00;;;1.63;;
73276;SDS011;61501;43.316;5.372;2023-09-19T09:12:32;3.30;;;1.08;;
73276;SDS011;61501;43.316;5.372;2023-09-19T09:15:01;4.72;;;1.20;;
73276;SDS011;61501;43.316;5.372;2023-09-19T09:17:29;3.80;;;1.17;;
73276;SDS011;61501;43.316;5.372;2023-09-19T09:19:55;2.63;;;1.20;;
73276;SDS011;61501;43.316;5.372;2023-09-19T09:22:20;1.40;;;0.90;;
73276;SDS011;61501;43.316;5.372;2023-09-19T09:24:58;1.65;;;0.90;;
73276;SDS011;61501;43.316;5.372;2023-09-19T09:27:28;3.60;;;1.00;;
73276;SDS011;61501;43.316;5.372;2023-09-19T09:29:54;2.60;;;0.90;;
73276;SDS011;61501;43.316;5.372;2023-09-19T09:32:23;2.97;;;1.17;;
73276;SDS011;61501;43.316;5.372;2023-09-19T09:34:59;4.28;;;1.10;;
73276;SDS011;61501;43.316;5.372;2023-09-19T09:37:26;4.45;;;1.10;;
73276;SDS011;61501;43.316;5.372;2023-09-19T09:39:59;1.60;;;0.80;;
73276;SDS011;61501;43.316;5.372;2023-09-19T09:42:44;2.10;;;1.13;;
73276;SDS011;61501;43.316;5.372;2023-09-19T09:45:15;1.67;;;1.02;;
73276;SDS011;61501;43.316;5.372;2023-09-19T09:47:48;3.35;;;1.10;;
73276;SDS011;61501;43.316;5.372;2023-09-19T09:50:23;4.40;;;1.10;;
73276;SDS011;61501;43.316;5.372;2023-09-19T09:56:02;2.80;;;1.10;;
73276;SDS011;61501;43.316;5.372;2023-09-19T09:58:48;2.20;;;1.35;;
73276;SDS011;61501;43.316;5.372;2023-09-19T10:01:19;1.67;;;1.05;;
73276;SDS011;61501;43.316;5.372;2023-09-19T10:03:46;1.95;;;1.00;;
73276;SDS011;61501;43.316;5.372;2023-09-19T10:06:15;4.00;;;2.45;;
73276;SDS011;61501;43.316;5.372;2023-09-19T10:11:35;4.30;;;2.65;;
73276;SDS011;61501;43.316;5.372;2023-09-19T10:14:04;2.53;;;1.20;;
73276;SDS011;61501;43.316;5.372;2023-09-19T10:16:33;3.50;;;1.27;;
73276;SDS011;61501;43.316;5.372;2023-09-19T10:19:01;5.70;;;1.20;;
73276;SDS011;61501;43.316;5.372;2023-09-19T10:21:31;6.18;;;1.55;;
73276;SDS011;61501;43.316;5.372;2023-09-19T10:23:58;2.33;;;1.13;;
73276;SDS011;61501;43.316;5.372;2023-09-19T10:26:25;3.05;;;1.00;;
73276;SDS011;61501;43.316;5.372;2023-09-19T10:28:56;3.15;;;1.38;;
73276;SDS011;61501;43.316;5.372;2023-09-19T10:31:22;2.15;;;1.23;;
73276;SDS011;61501;43.316;5.372;2023-09-19T10:33:50;4.22;;;1.42;;
73276;SDS011;61501;43.316;5.372;2023-09-19T10:36:18;4.55;;;1.42;;
73276;SDS011;61501;43.316;5.372;2023-09-19T10:38:45;3.47;;;1.10;;
73276;SDS011;61501;43.316;5.372;2023-09-19T10:41:13;4.80;;;1.13;;
73276;SDS011;61501;43.316;5.372;2023-09-19T10:43:41;4.68;;;1.80;;
73276;SDS011;61501;43.316;5.372;2023-09-19T10:46:11;1.95;;;1.10;;
73276;SDS011;61501;43.316;5.372;2023-09-19T10:48:38;6.03;;;1.52;;
73276;SDS011;61501;43.316;5.372;2023-09-19T10:51:12;5.38;;;1.83;;
73276;SDS011;61501;43.316;5.372;2023-09-19T10:56:36;5.60;;;1.30;;
73276;SDS011;61501;43.316;5.372;2023-09-19T10:59:12;2.88;;;1.20;;
73276;SDS011;61501;43.316;5.372;2023-09-19T11:01:44;2.33;;;1.27;;
73276;SDS011;61501;43.316;5.372;2023-09-19T11:06:59;5.93;;;2.20;;
73276;SDS011;61501;43.316;5.372;2023-09-19T11:15:00;5.20;;;1.52;;
73276;SDS011;61501;43.316;5.372;2023-09-19T11:17:42;2.70;;;1.48;;
73276;SDS011;61501;43.316;5.372;2023-09-19T11:20:17;4.30;;;1.20;;
73276;SDS011;61501;43.316;5.372;2023-09-19T11:30:39;4.57;;;1.27;;
73276;SDS011;61501;43.316;5.372;2023-09-19T11:33:15;1.48;;;1.02;;
73276;SDS011;61501;43.316;5.372;2023-09-19T11:36:07;2.75;;;0.90;;
73276;SDS011;61501;43.316;5.372;2023-09-19T11:43:50;2.92;;;1.35;;
73276;SDS011;61501;43.316;5.372;2023-09-19T11:46:51;3.67;;;1.40;;
73276;SDS011;61501;43.316;5.372;2023-09-19T11:49:26;2.65;;;1.15;;
73276;SDS011;61501;43.316;5.372;2023-09-19T11:51:57;6.57;;;1.30;;
73276;SDS011;61501;43.316;5.372;2023-09-19T11:54:26;3.45;;;1.20;;
73276;SDS011;61501;43.316;5.372;2023-09-19T11:56:56;1.73;;;1.17;;
73276;SDS011;61501;43.316;5.372;2023-09-19T11:59:23;2.75;;;1.40;;
73276;SDS011;61501;43.316;5.372;2023-09-19T12:02:05;3.22;;;1.40;;
73276;SDS011;61501;43.316;5.372;2023-09-19T12:04:40;4.80;;;1.45;;
73276;SDS011;61501;43.316;5.372;2023-09-19T12:07:16;2.72;;;1.10;;
73276;SDS011;61501;43.316;5.372;2023-09-19T12:12:40;2.17;;;1.10;;
73276;SDS011;61501;43.316;5.372;2023-09-19T12:15:13;3.45;;;1.20;;
73276;SDS011;61501;43.316;5.372;2023-09-19T12:17:40;2.20;;;1.38;;
73276;SDS011;61501;43.316;5.372;2023-09-19T12:20:09;3.95;;;1.33;;
73276;SDS011;61501;43.316;5.372;2023-09-19T12:22:42;2.50;;;1.30;;
73276;SDS011;61501;43.316;5.372;2023-09-19T12:25:09;2.00;;;0.95;;
73276;SDS011;61501;43.316;5.372;2023-09-19T12:27:43;4.45;;;1.30;;
73276;SDS011;61501;43.316;5.372;2023-09-19T12:30:13;3.55;;;1.30;;
73276;SDS011;61501;43.316;5.372;2023-09-19T12:32:40;4.07;;;1.30;;
73276;SDS011;61501;43.316;5.372;2023-09-19T12:35:07;9.25;;;2.33;;
73276;SDS011;61501;43.316;5.372;2023-09-19T12:37:35;3.95;;;1.30;;
73276;SDS011;61501;43.316;5.372;2023-09-19T12:40:05;7.70;;;1.60;;
73276;SDS011;61501;43.316;5.372;2023-09-19T12:42:47;2.20;;;0.80;;
73276;SDS011;61501;43.316;5.372;2023-09-19T12:45:14;0.90;;;0.80;;
73276;SDS011;61501;43.316;5.372;2023-09-19T12:51:12;7.55;;;1.88;;
73276;SDS011;61501;43.316;5.372;2023-09-19T12:53:45;10.55;;;2.15;;
73276;SDS011;61501;43.316;5.372;2023-09-19T12:56:21;7.07;;;2.50;;
73276;SDS011;61501;43.316;5.372;2023-09-19T12:58:51;5.07;;;1.50;;
73276;SDS011;61501;43.316;5.372;2023-09-19T13:01:24;4.10;;;1.35;;
73276;SDS011;61501;43.316;5.372;2023-09-19T13:06:50;5.63;;;1.70;;
73276;SDS011;61501;43.316;5.372;2023-09-19T13:09:17;7.03;;;1.92;;
73276;SDS011;61501;43.316;5.372;2023-09-19T13:11:45;6.95;;;1.80;;
73276;SDS011;61501;43.316;5.372;2023-09-19T13:14:20;5.28;;;1.65;;
73276;SDS011;61501;43.316;5.372;2023-09-19T13:17:02;6.85;;;1.40;;
73276;SDS011;61501;43.316;5.372;2023-09-19T13:19:50;8.05;;;1.73;;
73276;SDS011;61501;43.316;5.372;2023-09-19T13:22:42;6.45;;;1.52;;
73276;SDS011;61501;43.316;5.372;2023-09-19T13:25:13;6.78;;;1.70;;
73276;SDS011;61501;43.316;5.372;2023-09-19T13:27:43;7.22;;;1.70;;
73276;SDS011;61501;43.316;5.372;2023-09-19T13:30:13;6.55;;;1.80;;
73276;SDS011;61501;43.316;5.372;2023-09-19T13:32:39;7.47;;;1.45;;
73276;SDS011;61501;43.316;5.372;2023-09-19T13:35:06;6.25;;;1.45;;
73276;SDS011;61501;43.316;5.372;2023-09-19T13:37:34;4.15;;;1.58;;
73276;SDS011;61501;43.316;5.372;2023-09-19T13:40:06;8.27;;;2.00;;
73276;SDS011;61501;43.316;5.372;2023-09-19T13:42:35;5.15;;;1.90;;
73276;SDS011;61501;43.316;5.372;2023-09-19T13:45:04;9.98;;;2.88;;
73276;SDS011;61501;43.316;5.372;2023-09-19T13:47:31;8.57;;;1.75;;
73276;SDS011;61501;43.316;5.372;2023-09-19T13:49:57;5.32;;;1.48;;
73276;SDS011;61501;43.316;5.372;2023-09-19T13:52:23;4.95;;;1.70;;
73276;SDS011;61501;43.316;5.372;2023-09-19T13:54:53;9.05;;;1.60;;
73276;SDS011;61501;43.316;5.372;2023-09-19T13:57:21;6.35;;;1.58;;
73276;SDS011;61501;43.316;5.372;2023-09-19T13:59:47;5.95;;;1.80;;
73276;SDS011;61501;43.316;5.372;2023-09-19T14:02:13;8.35;;;1.55;;
73276;SDS011;61501;43.316;5.372;2023-09-19T14:04:39;5.53;;;1.17;;
73276;SDS011;61501;43.316;5.372;2023-09-19T14:07:05;4.05;;;1.60;;
73276;SDS011;61501;43.316;5.372;2023-09-19T14:09:32;6.25;;;1.60;;
73276;SDS011;61501;43.316;5.372;2023-09-19T14:11:58;5.30;;;1.73;;
73276;SDS011;61501;43.316;5.372;2023-09-19T14:14:24;4.38;;;1.35;;
73276;SDS011;61501;43.316;5.372;2023-09-19T14:16:50;3.65;;;1.60;;
73276;SDS011;61501;43.316;5.372;2023-09-19T14:19:17;3.50;;;1.20;;
73276;SDS011;61501;43.316;5.372;2023-09-19T14:21:43;3.28;;;1.23;;
73276;SDS011;61501;43.316;5.372;2023-09-19T14:24:09;3.60;;;1.42;;
73276;SDS011;61501;43.316;5.372;2023-09-19T14:26:35;3.38;;;1.40;;
73276;SDS011;61501;43.316;5.372;2023-09-19T14:29:01;4.22;;;1.38;;
73276;SDS011;61501;43.316;5.372;2023-09-19T14:31:27;7.63;;;1.88;;
73276;SDS011;61501;43.316;5.372;2023-09-19T14:33:54;5.72;;;1.60;;
73276;SDS011;61501;43.316;5.372;2023-09-19T14:36:20;6.50;;;1.50;;
73276;SDS011;61501;43.316;5.372;2023-09-19T14:38:47;4.72;;;1.60;;
73276;SDS011;61501;43.316;5.372;2023-09-19T14:41:12;5.70;;;1.52;;
73276;SDS011;61501;43.316;5.372;2023-09-19T14:43:38;5.55;;;1.60;;
73276;SDS011;61501;43.316;5.372;2023-09-19T14:46:07;5.32;;;1.60;;
73276;SDS011;61501;43.316;5.372;2023-09-19T14:48:33;3.78;;;1.48;;
73276;SDS011;61501;43.316;5.372;2023-09-19T14:51:02;7.97;;;1.42;;
73276;SDS011;61501;43.316;5.372;2023-09-19T14:53:29;3.75;;;1.33;;
73276;SDS011;61501;43.316;5.372;2023-09-19T14:55:55;6.32;;;1.58;;
73276;SDS011;61501;43.316;5.372;2023-09-19T14:58:21;5.97;;;1.30;;
73276;SDS011;61501;43.316;5.372;2023-09-19T15:00:47;3.85;;;1.33;;
73276;SDS011;61501;43.316;5.372;2023-09-19T15:03:12;6.47;;;1.70;;
73276;SDS011;61501;43.316;5.372;2023-09-19T15:05:43;3.80;;;1.38;;
73276;SDS011;61501;43.316;5.372;2023-09-19T15:08:08;4.80;;;1.30;;
73276;SDS011;61501;43.316;5.372;2023-09-19T15:10:34;5.85;;;1.35;;
73276;SDS011;61501;43.316;5.372;2023-09-19T15:12:59;5.70;;;1.70;;
73276;SDS011;61501;43.316;5.372;2023-09-19T15:15:25;8.07;;;1.90;;
73276;SDS011;61501;43.316;5.372;2023-09-19T15:17:51;3.58;;;1.55;;
73276;SDS011;61501;43.316;5.372;2023-09-19T15:20:16;5.82;;;1.58;;
73276;SDS011;61501;43.316;5.372;2023-09-19T15:22:42;4.85;;;1.77;;
73276;SDS011;61501;43.316;5.372;2023-09-19T15:25:09;5.72;;;1.80;;
73276;SDS011;61501;43.316;5.372;2023-09-19T15:27:35;3.47;;;1.45;;
73276;SDS011;61501;43.316;5.372;2023-09-19T15:30:02;7.65;;;1.60;;
73276;SDS011;61501;43.316;5.372;2023-09-19T15:32:28;6.72;;;1.58;;
73276;SDS011;61501;43.316;5.372;2023-09-19T15:34:54;6.82;;;1.77;;
73276;SDS011;61501;43.316;5.372;2023-09-19T15:37:20;4.18;;;1.60;;
73276;SDS011;61501;43.316;5.372;2023-09-19T15:39:46;3.75;;;1.55;;
73276;SDS011;61501;43.316;5.372;2023-09-19T15:42:12;6.35;;;1.50;;
73276;SDS011;61501;43.316;5.372;2023-09-19T15:44:38;4.20;;;1.60;;
73276;SDS011;61501;43.316;5.372;2023-09-19T15:47:03;6.47;;;1.80;;
73276;SDS011;61501;43.316;5.372;2023-09-19T15:49:29;5.85;;;1.90;;
73276;SDS011;61501;43.316;5.372;2023-09-19T15:51:55;6.43;;;1.95;;